createdAt,value
2018-01-02T00:01:27.571Z,1.13
2018-01-02T00:03:54.129Z,1.87
2018-01-02T00:06:20.813Z,1.10
2018-01-02T00:08:47.987Z,1.30
2018-01-02T00:11:15.485Z,1.27
2018-01-02T00:13:41.963Z,2.53
2018-01-02T00:16:08.406Z,1.43
2018-01-02T00:18:35.603Z,1.03
2018-01-02T00:21:02.090Z,1.43
2018-01-02T00:23:28.565Z,1.50
2018-01-02T00:25:55.118Z,1.40
2018-01-02T00:28:21.612Z,1.30
2018-01-02T00:30:48.103Z,1.40
2018-01-02T00:33:15.297Z,1.23
2018-01-02T00:35:47.043Z,1.10
2018-01-02T00:38:13.446Z,1.17
2018-01-02T00:40:40.690Z,1.30
2018-01-02T00:43:07.341Z,1.30
2018-01-02T00:45:37.571Z,2.10
2018-01-02T00:48:04.662Z,1.00
2018-01-02T00:50:31.095Z,1.17
2018-01-02T00:52:57.673Z,1.47
2018-01-02T00:55:25.118Z,1.00
2018-01-02T00:57:52.549Z,0.93
2018-01-02T01:00:19.223Z,2.63
2018-01-02T01:02:45.835Z,0.97
2018-01-02T01:05:12.276Z,1.40
2018-01-02T01:07:38.720Z,1.83
2018-01-02T01:10:05.364Z,1.00
2018-01-02T01:12:33.188Z,0.87
2018-01-02T01:15:00.574Z,0.90
2018-01-02T01:17:27.724Z,0.90
2018-01-02T01:19:54.154Z,0.83
2018-01-02T01:22:20.718Z,0.90
2018-01-02T01:24:47.191Z,1.00
2018-01-02T01:27:15.058Z,1.23
2018-01-02T01:29:41.825Z,1.23
2018-01-02T01:32:08.453Z,1.10
2018-01-02T01:34:35.781Z,0.93
2018-01-02T01:37:02.227Z,1.23
2018-01-02T01:39:28.830Z,1.20
2018-01-02T01:41:56.056Z,1.10
2018-01-02T01:44:22.680Z,1.00
2018-01-02T01:46:49.191Z,0.80
2018-01-02T01:49:15.642Z,5.20
2018-01-02T01:51:42.830Z,1.33
2018-01-02T01:54:10.551Z,1.53
2018-01-02T01:56:37.071Z,0.80
2018-01-02T01:59:03.596Z,0.90
2018-01-02T02:01:30.143Z,1.20
2018-01-02T02:03:57.340Z,1.30
2018-01-02T02:06:23.805Z,2.10
2018-01-02T02:08:50.449Z,1.10
2018-01-02T02:11:16.978Z,1.10
2018-01-02T02:13:43.427Z,1.20
2018-01-02T02:16:09.926Z,1.40
2018-01-02T02:18:36.375Z,3.27
2018-01-02T02:21:02.817Z,4.00
2018-01-02T02:23:29.462Z,1.67
2018-01-02T02:25:55.880Z,3.37
2018-01-02T02:28:22.354Z,1.40
2018-01-02T02:30:50.054Z,1.53
2018-01-02T02:33:17.038Z,1.67
2018-01-02T02:35:45.744Z,1.60
2018-01-02T02:38:18.886Z,1.33
2018-01-02T02:41:00.488Z,1.83
2018-01-02T02:43:28.738Z,1.60
2018-01-02T02:45:59.378Z,1.37
2018-01-02T02:48:26.549Z,1.40
2018-01-02T02:50:53.669Z,3.60
2018-01-02T02:53:20.495Z,1.50
2018-01-02T02:55:46.934Z,3.70
2018-01-02T02:58:13.398Z,1.20
2018-01-02T03:00:39.794Z,1.30
2018-01-02T03:03:06.185Z,5.87
2018-01-02T03:05:32.639Z,2.70
2018-01-02T03:07:59.229Z,1.77
2018-01-02T03:10:25.643Z,1.37
2018-01-02T03:12:52.094Z,1.77
2018-01-02T03:15:19.264Z,1.43
2018-01-02T03:17:46.426Z,1.40
2018-01-02T03:20:12.908Z,3.30
2018-01-02T03:22:40.912Z,2.00
2018-01-02T03:25:07.504Z,1.73
2018-01-02T03:27:34.020Z,1.93
2018-01-02T03:30:00.449Z,3.33
2018-01-02T03:32:26.906Z,2.97
2018-01-02T03:34:54.225Z,3.67
2018-01-02T03:37:20.664Z,2.40
2018-01-02T03:39:47.239Z,5.97
2018-01-02T03:42:13.757Z,1.20
2018-01-02T03:44:40.232Z,1.90
2018-01-02T03:47:06.819Z,2.23
2018-01-02T03:49:33.214Z,1.30
2018-01-02T03:52:00.278Z,3.30
2018-01-02T03:54:27.248Z,2.47
2018-01-02T03:56:54.454Z,1.93
2018-01-02T03:59:20.960Z,5.47
2018-01-02T04:01:47.410Z,1.40
2018-01-02T04:04:13.882Z,2.70
2018-01-02T04:06:40.273Z,6.77
2018-01-02T04:09:07.407Z,4.00
2018-01-02T04:11:33.835Z,3.87
2018-01-02T04:14:01.077Z,4.00
2018-01-02T04:16:27.507Z,1.73
2018-01-02T04:18:53.894Z,2.00
2018-01-02T04:21:20.428Z,2.07
2018-01-02T04:23:46.872Z,2.13
2018-01-02T04:26:13.290Z,3.77
2018-01-02T04:28:39.685Z,1.77
2018-01-02T04:31:06.808Z,2.00
2018-01-02T04:33:33.261Z,1.40
2018-01-02T04:35:59.629Z,2.20
2018-01-02T04:38:26.213Z,1.57
2018-01-02T04:40:53.442Z,1.23
2018-01-02T04:43:19.859Z,7.73
2018-01-02T04:45:46.267Z,1.83
2018-01-02T04:48:12.864Z,6.50
2018-01-02T04:50:39.328Z,7.80
2018-01-02T04:53:05.771Z,3.83
2018-01-02T04:55:32.264Z,3.63
2018-01-02T04:57:59.448Z,2.47
2018-01-02T05:00:25.889Z,3.83
2018-01-02T05:02:52.384Z,4.63
2018-01-02T05:05:19.589Z,2.73
2018-01-02T05:07:46.165Z,6.13
2018-01-02T05:10:12.794Z,6.53
2018-01-02T05:12:39.302Z,4.23
2018-01-02T05:15:06.479Z,8.67
2018-01-02T05:17:34.394Z,3.70
2018-01-02T05:20:00.888Z,7.80
2018-01-02T05:22:28.078Z,1.90
2018-01-02T05:24:54.614Z,4.43
2018-01-02T05:27:21.026Z,3.47
2018-01-02T05:29:47.503Z,2.43
2018-01-02T05:32:13.991Z,8.37
2018-01-02T05:34:40.395Z,2.87
2018-01-02T05:37:07.443Z,2.93
2018-01-02T05:39:34.675Z,8.87
2018-01-02T05:42:01.134Z,4.17
2018-01-02T05:44:27.548Z,4.03
2018-01-02T05:46:54.051Z,4.17
2018-01-02T05:49:20.582Z,6.50
2018-01-02T05:51:47.048Z,2.70
2018-01-02T05:54:13.509Z,4.23
2018-01-02T05:56:40.072Z,2.17
2018-01-02T05:59:06.553Z,2.90
2018-01-02T06:01:34.458Z,1.77
2018-01-02T06:04:00.953Z,3.63
2018-01-02T06:06:28.185Z,4.80
2018-01-02T06:08:54.656Z,1.60
2018-01-02T06:11:21.931Z,4.07
2018-01-02T06:13:48.523Z,1.77
2018-01-02T06:16:15.157Z,6.40
2018-01-02T06:18:41.694Z,1.53
2018-01-02T06:21:08.942Z,1.90
2018-01-02T06:23:36.528Z,2.50
2018-01-02T06:26:03.017Z,1.13
2018-01-02T06:28:29.498Z,1.40
2018-01-02T06:30:56.748Z,1.30
2018-01-02T06:33:23.214Z,5.43
2018-01-02T06:35:49.893Z,2.20
2018-01-02T06:38:16.416Z,3.40
2018-01-02T06:40:42.827Z,2.20
2018-01-02T06:43:09.263Z,3.03
2018-01-02T06:45:35.707Z,2.00
2018-01-02T06:48:02.353Z,4.00
2018-01-02T06:50:28.752Z,1.70
2018-01-02T06:52:55.190Z,2.40
2018-01-02T06:55:21.638Z,3.03
2018-01-02T06:57:48.083Z,1.90
2018-01-02T07:00:14.530Z,3.60
2018-01-02T07:02:42.413Z,2.60
2018-01-02T07:05:08.817Z,2.23
2018-01-02T07:07:35.282Z,3.00
2018-01-02T07:10:01.709Z,3.33
2018-01-02T07:12:28.850Z,1.70
2018-01-02T07:14:55.275Z,2.10
2018-01-02T07:17:21.704Z,2.90
2018-01-02T07:19:48.862Z,1.70
2018-01-02T07:22:15.426Z,2.97
2018-01-02T07:24:41.888Z,1.63
2018-01-02T07:27:08.360Z,1.20
2018-01-02T07:29:35.526Z,1.20
2018-01-02T07:32:01.960Z,4.33
2018-01-02T07:34:28.349Z,1.83
2018-01-02T07:36:56.303Z,1.30
2018-01-02T07:39:22.713Z,3.27
2018-01-02T07:41:49.139Z,2.57
2018-01-02T07:44:15.606Z,3.00
2018-01-02T07:46:42.774Z,2.03
2018-01-02T07:49:10.969Z,2.30
2018-01-02T07:51:37.548Z,3.87
2018-01-02T07:54:04.013Z,2.80
2018-01-02T07:56:32.725Z,2.50
2018-01-02T07:58:59.529Z,4.10
2018-01-02T08:01:26.345Z,1.40
2018-01-02T08:03:52.762Z,4.90
2018-01-02T08:06:19.250Z,2.80
2018-01-02T08:08:48.056Z,1.33
2018-01-02T08:11:14.936Z,5.17
2018-01-02T08:13:41.930Z,5.50
2018-01-02T08:16:09.054Z,5.37
2018-01-02T08:18:36.507Z,4.07
2018-01-02T08:21:02.913Z,15.83
2018-01-02T08:23:30.307Z,2.03
2018-01-02T08:25:56.713Z,1.60
2018-01-02T08:28:23.139Z,2.10
2018-01-02T08:30:50.337Z,3.23
2018-01-02T08:33:16.724Z,2.00
2018-01-02T08:35:43.194Z,2.50
2018-01-02T08:38:10.310Z,1.20
2018-01-02T08:40:37.464Z,2.37
2018-01-02T08:43:04.059Z,1.57
2018-01-02T08:45:30.518Z,3.50
2018-01-02T08:47:56.905Z,3.13
2018-01-02T08:50:23.403Z,3.53
2018-01-02T08:52:49.907Z,3.13
2018-01-02T08:55:16.371Z,3.20
2018-01-02T08:57:43.671Z,1.97
2018-01-02T09:00:10.294Z,1.93
2018-01-02T09:02:36.687Z,3.97
2018-01-02T09:05:03.330Z,1.97
2018-01-02T09:07:30.672Z,2.70
2018-01-02T09:09:57.885Z,1.50
2018-01-02T09:12:30.447Z,1.63
2018-01-02T09:14:56.858Z,1.77
2018-01-02T09:17:24.183Z,1.40
2018-01-02T09:19:50.631Z,1.53
2018-01-02T09:22:17.784Z,3.27
2018-01-02T09:24:45.013Z,1.37
2018-01-02T09:27:11.502Z,2.87
2018-01-02T09:29:38.784Z,2.27
2018-01-02T09:32:05.262Z,12.53
2018-01-02T09:34:31.683Z,2.60
2018-01-02T09:36:58.888Z,1.93
2018-01-02T09:39:25.731Z,4.63
2018-01-02T09:41:53.678Z,2.63
2018-01-02T09:44:20.033Z,5.90
2018-01-02T09:46:46.559Z,3.40
2018-01-02T09:49:13.016Z,3.80
2018-01-02T09:51:39.534Z,2.83
2018-01-02T09:54:06.054Z,4.83
2018-01-02T09:56:35.123Z,7.67
2018-01-02T09:59:03.795Z,4.90
2018-01-02T10:01:30.744Z,1.73
2018-01-02T10:03:57.404Z,6.37
2018-01-02T10:06:24.514Z,2.50
2018-01-02T10:08:51.091Z,4.70
2018-01-02T10:11:17.539Z,4.07
2018-01-02T10:13:43.968Z,4.00
2018-01-02T10:16:10.382Z,5.80
2018-01-02T10:18:36.933Z,4.50
2018-01-02T10:21:03.578Z,2.43
2018-01-02T10:23:30.948Z,3.60
2018-01-02T10:25:58.128Z,3.27
2018-01-02T10:28:24.551Z,1.97
2018-01-02T10:30:51.783Z,6.60
2018-01-02T10:33:18.279Z,3.03
2018-01-02T10:35:44.669Z,5.13
2018-01-02T10:38:11.137Z,4.23
2018-01-02T10:40:37.604Z,6.57
2018-01-02T10:43:04.870Z,5.47
2018-01-02T10:45:33.570Z,5.10
2018-01-02T10:48:01.783Z,6.90
2018-01-02T10:50:31.154Z,3.83
2018-01-02T10:52:59.024Z,2.87
2018-01-02T10:55:30.393Z,2.77
2018-01-02T10:57:56.962Z,2.33
2018-01-02T11:00:23.472Z,5.50
2018-01-02T11:02:49.923Z,5.77
2018-01-02T11:05:19.145Z,3.57
2018-01-02T11:07:46.280Z,2.17
2018-01-02T11:10:13.458Z,3.30
2018-01-02T11:12:41.964Z,3.07
2018-01-02T11:15:08.424Z,3.33
2018-01-02T11:17:34.914Z,2.57
2018-01-02T11:20:01.380Z,6.60
2018-01-02T11:22:27.789Z,2.90
2018-01-02T11:24:54.264Z,5.93
2018-01-02T11:27:20.707Z,4.10
2018-01-02T11:29:47.875Z,3.97
2018-01-02T11:32:15.020Z,5.33
2018-01-02T11:34:42.163Z,3.47
2018-01-02T11:37:08.583Z,6.13
2018-01-02T11:39:35.011Z,3.50
2018-01-02T11:42:02.195Z,7.73
2018-01-02T11:44:28.582Z,2.70
2018-01-02T11:46:55.776Z,6.33
2018-01-02T11:49:22.944Z,3.77
2018-01-02T11:51:49.472Z,6.30
2018-01-02T11:54:16.159Z,4.40
2018-01-02T11:56:42.693Z,4.87
2018-01-02T11:59:09.158Z,2.63
2018-01-02T12:01:35.608Z,2.40
2018-01-02T12:04:02.015Z,2.97
2018-01-02T12:06:28.464Z,3.00
2018-01-02T12:08:54.903Z,4.03
2018-01-02T12:11:21.842Z,1.80
2018-01-02T12:13:48.312Z,7.37
2018-01-02T12:16:14.766Z,2.47
2018-01-02T12:18:42.156Z,3.67
2018-01-02T12:21:08.650Z,4.47
2018-01-02T12:23:35.899Z,3.07
2018-01-02T12:26:02.436Z,2.50
2018-01-02T12:28:28.959Z,3.07
2018-01-02T12:30:55.459Z,2.50
2018-01-02T12:33:21.879Z,4.80
2018-01-02T12:35:49.039Z,4.53
2018-01-02T12:38:15.495Z,5.13
2018-01-02T12:40:41.926Z,3.87
2018-01-02T12:43:08.334Z,3.77
2018-01-02T12:45:35.588Z,5.43
2018-01-02T12:48:02.032Z,8.13
2018-01-02T12:50:28.464Z,2.93
2018-01-02T12:52:55.028Z,3.57
2018-01-02T12:55:22.237Z,4.67
2018-01-02T12:57:49.129Z,4.97
2018-01-02T13:00:15.641Z,2.53
2018-01-02T13:02:43.309Z,6.27
2018-01-02T13:05:09.979Z,4.00
2018-01-02T13:07:36.594Z,4.70
2018-01-02T13:10:03.885Z,1.90
2018-01-02T13:12:30.294Z,3.03
2018-01-02T13:14:56.838Z,3.33
2018-01-02T13:17:23.798Z,2.70
2018-01-02T13:19:50.998Z,5.30
2018-01-02T13:22:18.206Z,5.80
2018-01-02T13:24:44.691Z,3.47
2018-01-02T13:27:11.120Z,4.80
2018-01-02T13:29:38.646Z,2.60
2018-01-02T13:32:05.205Z,4.63
2018-01-02T13:34:32.373Z,4.97
2018-01-02T13:36:59.595Z,4.60
2018-01-02T13:39:26.065Z,2.60
2018-01-02T13:41:52.537Z,4.33
2018-01-02T13:44:19.367Z,2.97
2018-01-02T13:46:45.880Z,3.77
2018-01-02T13:49:12.378Z,4.03
2018-01-02T13:51:38.901Z,3.60
2018-01-02T13:54:06.158Z,3.93
2018-01-02T13:56:33.321Z,3.57
2018-01-02T13:58:59.791Z,4.53
2018-01-02T14:01:26.383Z,4.30
2018-01-02T14:03:53.958Z,8.17
2018-01-02T14:06:21.168Z,6.30
2018-01-02T14:08:47.621Z,5.70
2018-01-02T14:11:14.153Z,4.90
2018-01-02T14:13:41.367Z,9.57
2018-01-02T14:16:07.964Z,4.67
2018-01-02T14:18:35.665Z,2.30
2018-01-02T14:21:02.935Z,5.57
2018-01-02T14:23:30.174Z,4.30
2018-01-02T14:25:57.476Z,4.57
2018-01-02T14:28:23.906Z,7.40
2018-01-02T14:30:51.694Z,3.70
2018-01-02T14:33:18.134Z,3.23
2018-01-02T14:35:45.542Z,7.40
2018-01-02T14:38:12.882Z,5.37
2018-01-02T14:40:39.403Z,4.20
2018-01-02T14:43:08.174Z,8.53
2018-01-02T14:45:38.046Z,3.43
2018-01-02T14:48:05.390Z,6.90
2018-01-02T14:50:32.697Z,6.00
2018-01-02T14:53:03.958Z,7.27
2018-01-02T14:55:31.842Z,4.00
2018-01-02T14:57:58.456Z,5.77
2018-01-02T15:00:25.652Z,8.23
2018-01-02T15:02:52.100Z,2.80
2018-01-02T15:05:18.669Z,9.37
2018-01-02T15:07:45.124Z,8.70
2018-01-02T15:10:12.302Z,5.90
2018-01-02T15:12:38.801Z,3.73
2018-01-02T15:15:05.325Z,5.13
2018-01-02T15:17:31.843Z,5.47
2018-01-02T15:19:58.307Z,6.70
2018-01-02T15:22:24.737Z,4.23
2018-01-02T15:24:51.274Z,6.07
2018-01-02T15:27:18.465Z,7.23
2018-01-02T15:29:45.228Z,10.20
2018-01-02T15:32:13.651Z,8.17
2018-01-02T15:34:40.962Z,5.13
2018-01-02T15:37:07.466Z,8.73
2018-01-02T15:39:34.162Z,13.47
2018-01-02T15:42:01.441Z,5.50
2018-01-02T15:44:28.636Z,5.77
2018-01-02T15:46:55.089Z,4.80
2018-01-02T15:49:21.604Z,4.13
2018-01-02T15:51:48.173Z,8.03
2018-01-02T15:54:14.703Z,11.00
2018-01-02T15:56:41.885Z,5.30
2018-01-02T15:59:08.531Z,11.87
2018-01-02T16:01:35.821Z,5.20
2018-01-02T16:04:05.631Z,6.37
2018-01-02T16:06:34.353Z,3.20
2018-01-02T16:09:01.951Z,8.17
2018-01-02T16:11:28.530Z,7.90
2018-01-02T16:13:55.681Z,6.47
2018-01-02T16:16:23.044Z,9.13
2018-01-02T16:18:50.595Z,11.70
2018-01-02T16:21:17.785Z,5.90
2018-01-02T16:23:44.342Z,8.80
2018-01-02T16:26:13.584Z,7.07
2018-01-02T16:28:44.663Z,8.00
2018-01-02T16:31:11.095Z,7.73
2018-01-02T16:33:39.147Z,12.23
2018-01-02T16:36:06.303Z,7.10
2018-01-02T16:38:32.920Z,12.80
2018-01-02T16:40:59.459Z,13.03
2018-01-02T16:43:27.094Z,12.77
2018-01-02T16:45:53.628Z,9.97
2018-01-02T16:48:20.912Z,10.33
2018-01-02T16:50:48.434Z,7.90
2018-01-02T16:53:15.210Z,28.63
2018-01-02T16:55:41.826Z,11.47
2018-01-02T16:58:09.120Z,13.37
2018-01-02T17:00:36.383Z,10.97
2018-01-02T17:03:02.852Z,12.77
2018-01-02T17:05:29.364Z,16.80
2018-01-02T17:07:55.806Z,13.93
2018-01-02T17:10:23.009Z,16.80
2018-01-02T17:12:50.219Z,12.67
2018-01-02T17:15:17.403Z,10.20
2018-01-02T17:17:43.875Z,29.17
2018-01-02T17:20:10.353Z,17.97
2018-01-02T17:22:36.961Z,16.93
2018-01-02T17:25:03.694Z,9.30
2018-01-02T17:27:30.498Z,17.13
2018-01-02T17:29:57.036Z,9.67
2018-01-02T17:32:23.532Z,19.37
2018-01-02T17:34:50.795Z,15.43
2018-01-02T17:37:17.333Z,18.10
2018-01-02T17:39:44.649Z,12.47
2018-01-02T17:42:11.598Z,11.30
2018-01-02T17:44:39.257Z,19.03
2018-01-02T17:47:05.767Z,10.47
2018-01-02T17:49:32.253Z,12.03
2018-01-02T17:51:59.077Z,18.77
2018-01-02T17:54:25.654Z,17.87
2018-01-02T17:56:52.142Z,12.63
2018-01-02T17:59:18.674Z,13.93
2018-01-02T18:01:47.220Z,10.53
2018-01-02T18:04:13.784Z,12.83
2018-01-02T18:06:40.237Z,15.87
2018-01-02T18:09:06.790Z,17.90
2018-01-02T18:11:33.332Z,12.60
2018-01-02T18:14:00.121Z,18.73
2018-01-02T18:16:26.615Z,19.03
2018-01-02T18:18:53.860Z,8.83
2018-01-02T18:21:21.783Z,19.90
2018-01-02T18:23:49.113Z,20.47
2018-01-02T18:26:15.530Z,20.47
2018-01-02T18:28:42.035Z,9.73
2018-01-02T18:31:08.612Z,15.30
2018-01-02T18:33:35.356Z,15.83
2018-01-02T18:36:01.786Z,13.47
2018-01-02T18:38:29.702Z,18.60
2018-01-02T18:40:56.190Z,8.30
2018-01-02T18:43:22.784Z,17.70
2018-01-02T18:45:49.239Z,15.20
2018-01-02T18:48:15.693Z,16.93
2018-01-02T18:50:42.123Z,16.43
2018-01-02T18:53:08.592Z,14.57
2018-01-02T18:55:35.073Z,13.90
2018-01-02T18:58:01.533Z,11.73
2018-01-02T19:00:28.704Z,14.60
2018-01-02T19:02:55.218Z,18.57
2018-01-02T19:05:21.693Z,14.23
2018-01-02T19:07:49.159Z,14.70
2018-01-02T19:10:15.623Z,27.67
2018-01-02T19:12:42.079Z,11.93
2018-01-02T19:15:08.513Z,14.43
2018-01-02T19:17:36.148Z,21.23
2018-01-02T19:20:03.401Z,15.63
2018-01-02T19:22:30.955Z,17.23
2018-01-02T19:24:57.507Z,15.43
2018-01-02T19:27:24.707Z,19.33
2018-01-02T19:29:51.277Z,15.10
2018-01-02T19:32:18.881Z,18.80
2018-01-02T19:34:45.575Z,16.57
2018-01-02T19:37:12.113Z,14.43
2018-01-02T19:39:40.105Z,10.63
2018-01-02T19:42:07.916Z,11.90
2018-01-02T19:44:35.088Z,15.67
2018-01-02T19:47:01.722Z,13.70
2018-01-02T19:49:28.200Z,19.03
2018-01-02T19:51:55.457Z,22.67
2018-01-02T19:54:22.783Z,18.03
2018-01-02T19:56:49.628Z,21.67
2018-01-02T19:59:16.144Z,20.00
2018-01-02T20:01:44.375Z,16.40
2018-01-02T20:04:11.062Z,18.00
2018-01-02T20:06:39.195Z,13.93
2018-01-02T20:09:05.940Z,19.20
2018-01-02T20:11:32.547Z,25.10
2018-01-02T20:13:59.042Z,19.90
2018-01-02T20:16:25.568Z,16.83
2018-01-02T20:18:52.004Z,14.47
2018-01-02T20:21:19.203Z,15.20
2018-01-02T20:23:46.558Z,19.27
2018-01-02T20:26:13.108Z,19.90
2018-01-02T20:28:40.676Z,12.90
2018-01-02T20:31:08.046Z,20.80
2018-01-02T20:33:34.786Z,9.17
2018-01-02T20:36:02.142Z,22.17
2018-01-02T20:38:28.776Z,13.00
2018-01-02T20:40:55.843Z,16.33
2018-01-02T20:43:22.736Z,9.77
2018-01-02T20:45:51.099Z,14.27
2018-01-02T20:48:17.887Z,16.17
2018-01-02T20:50:54.290Z,21.58
2018-01-02T20:53:20.730Z,11.83
2018-01-02T20:55:47.162Z,18.53
2018-01-02T20:58:13.850Z,9.77
2018-01-02T21:00:40.486Z,13.23
2018-01-02T21:03:07.730Z,12.50
2018-01-02T21:05:34.475Z,13.00
2018-01-02T21:08:07.944Z,18.23
2018-01-02T21:10:34.974Z,19.07
2018-01-02T21:13:05.178Z,13.87
2018-01-02T21:15:31.922Z,21.43
2018-01-02T21:17:58.582Z,21.97
2018-01-02T21:20:25.255Z,16.73
2018-01-02T21:22:52.424Z,20.43
2018-01-02T21:25:19.620Z,13.50
2018-01-02T21:27:46.816Z,14.40
2018-01-02T21:30:21.089Z,19.90
2018-01-02T21:32:47.694Z,22.70
2018-01-02T21:35:14.987Z,17.70
2018-01-02T21:37:41.432Z,13.70
2018-01-02T21:40:08.990Z,16.77
2018-01-02T21:42:35.451Z,13.43
2018-01-02T21:45:02.855Z,22.00
2018-01-02T21:50:36.550Z,12.90
2018-01-02T21:53:05.758Z,14.70
2018-01-02T21:55:33.496Z,23.10
2018-01-02T21:58:00.092Z,28.73
2018-01-02T22:00:26.524Z,11.70
2018-01-02T22:02:55.112Z,13.30
2018-01-02T22:05:23.744Z,10.27
2018-01-02T22:07:50.265Z,17.70
2018-01-02T22:10:20.750Z,15.37
2018-01-02T22:12:47.669Z,17.23
2018-01-02T22:15:18.696Z,12.63
2018-01-02T22:17:46.050Z,13.60
2018-01-02T22:20:12.997Z,16.13
2018-01-02T22:22:39.871Z,14.33
2018-01-02T22:25:08.300Z,17.73
2018-01-02T22:27:35.176Z,9.80
2018-01-02T22:30:01.638Z,10.50
2018-01-02T22:32:28.795Z,11.93
2018-01-02T22:34:56.970Z,15.30
2018-01-02T22:37:24.698Z,7.60
2018-01-02T22:39:51.475Z,6.50
2018-01-02T22:42:18.787Z,21.00
2018-01-02T22:44:45.275Z,10.67
2018-01-02T22:47:12.017Z,6.57
2018-01-02T22:49:38.817Z,12.40
2018-01-02T22:52:05.457Z,8.90
2018-01-02T22:54:32.414Z,6.67
2018-01-02T22:56:59.869Z,23.30
2018-01-02T22:59:28.667Z,10.23
2018-01-02T23:01:55.641Z,13.30
2018-01-02T23:04:26.176Z,11.83
2018-01-02T23:06:58.482Z,9.80
2018-01-02T23:09:30.598Z,6.57
2018-01-02T23:11:58.347Z,10.77
2018-01-02T23:14:25.730Z,13.60
2018-01-02T23:16:52.216Z,7.93
2018-01-02T23:19:18.924Z,13.13
2018-01-02T23:21:45.425Z,5.90
2018-01-02T23:24:11.917Z,11.67
2018-01-02T23:26:38.537Z,16.80
2018-01-02T23:29:05.171Z,8.50
2018-01-02T23:31:32.521Z,8.53
2018-01-02T23:33:58.955Z,6.83
2018-01-02T23:36:25.431Z,13.20
2018-01-02T23:38:52.852Z,10.93
2018-01-02T23:41:19.340Z,6.07
2018-01-02T23:43:45.890Z,7.30
2018-01-02T23:46:12.314Z,9.20
2018-01-02T23:48:38.778Z,8.60
2018-01-02T23:51:05.513Z,11.23
2018-01-02T23:53:32.365Z,9.10
2018-01-02T23:55:58.887Z,12.40
2018-01-02T23:58:25.339Z,13.80
